createdAt,value
2023-02-19T00:02:28.049Z,74.90
2023-02-19T00:05:32.226Z,74.90
2023-02-19T00:08:38.552Z,75.00
2023-02-19T00:11:42.547Z,75.20
2023-02-19T00:14:45.830Z,75.30
2023-02-19T00:17:49.036Z,75.40
2023-02-19T00:20:52.352Z,75.40
2023-02-19T00:23:58.633Z,75.40
2023-02-19T00:27:01.900Z,75.30
2023-02-19T00:30:05.355Z,75.00
2023-02-19T00:33:09.005Z,75.20
2023-02-19T00:36:12.516Z,75.20
2023-02-19T00:39:18.700Z,75.10
2023-02-19T00:42:21.959Z,75.00
2023-02-19T00:45:25.247Z,75.10
2023-02-19T00:48:28.404Z,75.10
2023-02-19T00:51:33.384Z,75.00
2023-02-19T00:54:38.282Z,75.10
2023-02-19T00:57:41.324Z,75.30
2023-02-19T01:00:44.497Z,75.50
2023-02-19T01:03:48.375Z,75.70
2023-02-19T01:06:51.910Z,75.70
2023-02-19T01:09:56.538Z,75.80
2023-02-19T01:13:02.064Z,76.20
2023-02-19T01:16:06.028Z,76.40
2023-02-19T01:19:09.268Z,76.40
2023-02-19T01:22:12.389Z,76.40
2023-02-19T01:25:17.138Z,76.50
2023-02-19T01:28:20.307Z,76.50
2023-02-19T01:31:25.602Z,76.80
2023-02-19T01:34:33.299Z,76.80
2023-02-19T01:37:37.200Z,76.90
2023-02-19T01:40:41.889Z,76.50
2023-02-19T01:43:59.972Z,76.30
2023-02-19T01:47:03.230Z,76.20
2023-02-19T01:50:07.270Z,76.10
2023-02-19T01:53:12.239Z,76.10
2023-02-19T01:56:19.172Z,76.10
2023-02-19T01:59:22.882Z,76.20
2023-02-19T02:02:28.409Z,76.20
2023-02-19T02:05:47.132Z,76.30
2023-02-19T02:09:10.254Z,76.40
2023-02-19T02:12:15.636Z,76.50
2023-02-19T02:15:19.788Z,76.40
2023-02-19T02:18:32.601Z,75.70
2023-02-19T02:21:48.824Z,75.40
2023-02-19T02:25:11.839Z,75.20
2023-02-19T02:28:34.292Z,75.20
2023-02-19T02:31:42.546Z,75.50
2023-02-19T02:34:52.920Z,75.20
2023-02-19T02:38:00.975Z,75.30
2023-02-19T02:41:05.355Z,75.20
2023-02-19T02:44:08.784Z,75.30
2023-02-19T02:47:33.256Z,74.80
2023-02-19T02:50:39.848Z,74.60
2023-02-19T02:54:08.958Z,74.30
2023-02-19T02:57:20.944Z,74.50
2023-02-19T03:00:25.964Z,75.00
2023-02-19T03:03:31.382Z,75.40
2023-02-19T03:06:37.653Z,75.50
2023-02-19T03:09:43.952Z,75.50
2023-02-19T03:13:04.627Z,75.30
2023-02-19T03:16:30.869Z,75.10
2023-02-19T03:19:42.075Z,75.00
2023-02-19T03:22:47.283Z,75.00
2023-02-19T03:26:04.528Z,74.80
2023-02-19T03:29:24.127Z,74.80
2023-02-19T03:32:30.812Z,75.30
2023-02-19T03:35:38.787Z,75.80
2023-02-19T03:38:45.771Z,75.70
2023-02-19T03:41:58.483Z,75.80
2023-02-19T03:45:13.072Z,75.60
2023-02-19T03:48:35.617Z,75.70
2023-02-19T03:51:45.044Z,75.90
2023-02-19T03:54:56.392Z,75.20
2023-02-19T03:58:05.995Z,75.00
2023-02-19T04:01:14.641Z,75.30
2023-02-19T04:04:23.324Z,74.70
2023-02-19T04:07:32.514Z,74.90
2023-02-19T04:10:36.491Z,75.20
2023-02-19T04:13:45.698Z,75.40
2023-02-19T04:16:52.920Z,75.80
2023-02-19T04:19:59.089Z,76.00
2023-02-19T04:23:04.521Z,76.00
2023-02-19T04:26:09.641Z,76.20
2023-02-19T04:29:13.056Z,75.50
2023-02-19T04:32:16.487Z,75.80
2023-02-19T04:35:21.350Z,76.00
2023-02-19T04:38:26.003Z,75.50
2023-02-19T04:41:29.319Z,75.60
2023-02-19T04:44:32.507Z,76.00
2023-02-19T04:47:35.800Z,75.90
2023-02-19T04:50:40.507Z,76.00
2023-02-19T04:53:46.811Z,76.30
2023-02-19T04:56:52.679Z,76.10
2023-02-19T04:59:55.919Z,76.10
2023-02-19T05:02:59.137Z,76.00
2023-02-19T05:06:05.369Z,76.20
2023-02-19T05:09:10.037Z,76.40
2023-02-19T05:12:13.553Z,76.60
2023-02-19T05:15:17.072Z,76.80
2023-02-19T05:18:20.337Z,76.80
2023-02-19T05:21:23.897Z,76.80
2023-02-19T05:24:29.935Z,76.80
2023-02-19T05:27:33.813Z,76.90
2023-02-19T05:30:38.135Z,76.90
2023-02-19T05:33:43.133Z,76.90
2023-02-19T05:36:49.236Z,76.70
2023-02-19T05:39:53.865Z,77.00
2023-02-19T05:42:57.014Z,77.00
2023-02-19T05:46:01.779Z,76.60
2023-02-19T05:49:04.874Z,76.50
2023-02-19T05:52:07.922Z,76.70
2023-02-19T05:55:12.682Z,76.80
2023-02-19T05:58:15.689Z,76.90
2023-02-19T06:01:19.505Z,76.90
2023-02-19T06:04:23.469Z,76.50
2023-02-19T06:07:26.592Z,76.70
2023-02-19T06:10:30.920Z,76.40
2023-02-19T06:13:33.940Z,76.60
2023-02-19T06:16:36.989Z,76.40
2023-02-19T06:19:40.196Z,76.50
2023-02-19T06:22:43.245Z,76.40
2023-02-19T06:25:47.792Z,76.40
2023-02-19T06:28:52.337Z,76.50
2023-02-19T06:31:55.502Z,76.70
2023-02-19T06:34:58.598Z,76.90
2023-02-19T06:38:01.715Z,76.90
2023-02-19T06:41:08.911Z,76.50
2023-02-19T06:44:12.456Z,76.50
2023-02-19T06:47:15.600Z,76.60
2023-02-19T06:50:19.144Z,76.20
2023-02-19T06:53:22.298Z,76.10
2023-02-19T06:56:47.054Z,76.20
2023-02-19T06:59:52.139Z,76.10
2023-02-19T07:02:58.001Z,76.20
2023-02-19T07:06:01.434Z,76.40
2023-02-19T07:09:05.898Z,76.30
2023-02-19T07:12:10.320Z,76.20
2023-02-19T07:15:13.395Z,76.40
2023-02-19T07:18:16.550Z,76.00
2023-02-19T07:21:20.438Z,75.80
2023-02-19T07:24:23.670Z,75.50
2023-02-19T07:27:28.059Z,75.70
2023-02-19T07:30:33.131Z,75.20
2023-02-19T07:33:37.576Z,75.00
2023-02-19T07:36:40.686Z,74.40
2023-02-19T07:39:43.751Z,74.50
2023-02-19T07:42:48.349Z,74.20
2023-02-19T07:45:51.955Z,73.70
2023-02-19T07:48:57.316Z,73.60
2023-02-19T07:52:00.303Z,73.50
2023-02-19T07:55:03.509Z,73.20
2023-02-19T07:58:08.126Z,73.20
2023-02-19T08:01:16.035Z,73.20
2023-02-19T08:04:18.127Z,72.30
2023-02-19T08:07:21.092Z,72.50
2023-02-19T08:10:42.155Z,72.60
2023-02-19T08:13:48.859Z,72.40
2023-02-19T08:16:52.358Z,72.60
2023-02-19T08:19:55.418Z,72.30
2023-02-19T08:22:58.769Z,72.30
2023-02-19T08:26:02.541Z,72.30
2023-02-19T08:29:07.688Z,72.50
2023-02-19T08:32:10.738Z,72.80
2023-02-19T08:35:13.817Z,72.50
2023-02-19T08:38:17.311Z,72.20
2023-02-19T08:41:20.488Z,72.50
2023-02-19T08:44:24.824Z,72.40
2023-02-19T08:47:27.829Z,72.40
2023-02-19T08:50:30.978Z,71.70
2023-02-19T08:53:37.969Z,71.90
2023-02-19T08:56:40.970Z,71.60
2023-02-19T08:59:45.348Z,71.50
2023-02-19T09:02:48.340Z,70.70
2023-02-19T09:05:51.379Z,70.30
2023-02-19T09:08:57.076Z,70.10
2023-02-19T09:12:00.132Z,69.40
2023-02-19T09:15:05.563Z,69.40
2023-02-19T09:18:08.623Z,69.90
2023-02-19T09:21:11.853Z,69.80
2023-02-19T09:24:15.259Z,70.20
2023-02-19T09:27:20.318Z,70.30
2023-02-19T09:30:25.597Z,68.90
2023-02-19T09:33:28.651Z,68.50
2023-02-19T09:36:33.427Z,68.60
2023-02-19T09:39:37.971Z,68.10
2023-02-19T09:42:43.882Z,68.20
2023-02-19T09:45:49.150Z,68.40
2023-02-19T09:48:53.595Z,67.90
2023-02-19T09:52:00.407Z,68.30
2023-02-19T09:55:14.616Z,67.80
2023-02-19T09:58:27.241Z,68.00
2023-02-19T10:01:37.871Z,67.50
2023-02-19T10:04:43.872Z,66.70
2023-02-19T10:07:49.564Z,66.70
2023-02-19T10:10:53.713Z,66.70
2023-02-19T10:14:04.853Z,67.00
2023-02-19T10:17:17.664Z,66.20
2023-02-19T10:20:24.689Z,65.10
2023-02-19T10:23:28.182Z,64.50
2023-02-19T10:26:34.645Z,65.60
2023-02-19T10:29:38.663Z,64.30
2023-02-19T10:33:00.748Z,63.70
2023-02-19T10:36:06.905Z,62.50
2023-02-19T10:39:37.467Z,62.70
2023-02-19T10:42:47.406Z,61.20
2023-02-19T10:45:52.893Z,61.90
2023-02-19T10:48:59.687Z,62.10
2023-02-19T10:52:17.402Z,62.10
2023-02-19T10:55:28.962Z,61.90
2023-02-19T10:58:34.394Z,61.80
2023-02-19T11:01:38.462Z,61.30
2023-02-19T11:04:43.450Z,60.60
2023-02-19T11:07:49.171Z,59.20
2023-02-19T11:10:52.378Z,58.70
2023-02-19T11:13:57.063Z,58.70
2023-02-19T11:17:02.785Z,58.90
2023-02-19T11:20:15.617Z,58.70
2023-02-19T11:23:23.276Z,58.40
2023-02-19T11:26:29.356Z,57.60
2023-02-19T11:29:34.862Z,56.70
2023-02-19T11:32:38.522Z,57.40
2023-02-19T11:35:43.319Z,56.60
2023-02-19T11:38:46.629Z,55.60
2023-02-19T11:42:09.321Z,56.10
2023-02-19T11:45:23.466Z,56.70
2023-02-19T11:48:51.077Z,56.90
2023-02-19T11:52:13.546Z,56.90
2023-02-19T11:55:24.815Z,56.80
2023-02-19T11:58:53.908Z,57.90
2023-02-19T12:02:20.555Z,57.90
2023-02-19T12:05:35.514Z,57.50
2023-02-19T12:09:02.532Z,56.80
2023-02-19T12:12:32.017Z,57.50
2023-02-19T12:15:45.349Z,56.60
2023-02-19T12:19:33.601Z,56.50
2023-02-19T12:22:43.079Z,57.10
2023-02-19T12:25:58.748Z,57.40
2023-02-19T12:29:16.708Z,57.70
2023-02-19T12:32:50.813Z,58.20
2023-02-19T12:36:09.930Z,57.80
2023-02-19T12:39:25.287Z,56.60
2023-02-19T12:42:46.763Z,56.90
2023-02-19T12:45:54.646Z,56.90
2023-02-19T12:49:02.715Z,57.00
2023-02-19T12:52:12.134Z,57.10
2023-02-19T12:55:23.062Z,57.20
2023-02-19T12:58:31.474Z,57.40
2023-02-19T13:01:41.645Z,57.90
2023-02-19T13:04:50.764Z,58.20
2023-02-19T13:08:00.294Z,58.40
2023-02-19T13:11:07.527Z,57.70
2023-02-19T13:14:19.691Z,57.70
2023-02-19T13:17:28.303Z,57.50
2023-02-19T13:20:33.899Z,57.00
2023-02-19T13:23:56.243Z,56.40
2023-02-19T13:27:20.160Z,57.20
2023-02-19T13:30:39.866Z,56.70
2023-02-19T13:33:54.175Z,57.10
2023-02-19T13:36:57.839Z,56.40
2023-02-19T13:40:07.962Z,56.80
2023-02-19T13:43:26.088Z,56.50
2023-02-19T13:46:39.102Z,56.40
2023-02-19T13:49:44.002Z,56.20
2023-02-19T13:52:50.404Z,55.20
2023-02-19T13:55:53.961Z,55.50
2023-02-19T13:58:59.688Z,54.20
2023-02-19T14:02:15.856Z,53.90
2023-02-19T14:06:01.839Z,52.70
2023-02-19T14:09:04.819Z,52.00
2023-02-19T14:12:21.523Z,53.00
2023-02-19T14:15:43.973Z,53.70
2023-02-19T14:18:50.326Z,53.70
2023-02-19T14:21:53.527Z,54.10
2023-02-19T14:24:58.772Z,54.30
2023-02-19T14:28:06.094Z,54.10
2023-02-19T14:31:29.073Z,54.00
2023-02-19T14:34:33.646Z,54.30
2023-02-19T14:37:36.701Z,54.30
2023-02-19T14:40:42.519Z,54.60
2023-02-19T14:43:47.853Z,54.10
2023-02-19T14:46:57.680Z,53.50
2023-02-19T14:50:06.532Z,54.10
2023-02-19T14:53:11.215Z,54.00
2023-02-19T14:56:22.649Z,53.30
2023-02-19T14:59:31.712Z,53.20
2023-02-19T15:02:43.377Z,54.00
2023-02-19T15:05:49.121Z,54.10
2023-02-19T15:08:56.873Z,54.10
2023-02-19T15:12:01.367Z,54.10
2023-02-19T15:15:06.278Z,54.20
2023-02-19T15:18:09.323Z,53.60
2023-02-19T15:21:23.852Z,53.90
2023-02-19T15:24:28.335Z,53.20
2023-02-19T15:27:32.869Z,53.60
2023-02-19T15:30:36.022Z,54.20
2023-02-19T15:33:39.004Z,54.10
2023-02-19T15:36:43.658Z,54.60
2023-02-19T15:39:48.789Z,54.00
2023-02-19T15:42:51.919Z,53.60
2023-02-19T15:46:00.864Z,52.70
2023-02-19T15:49:13.238Z,52.70
2023-02-19T15:52:27.568Z,53.60
2023-02-19T15:55:37.602Z,53.50
2023-02-19T15:58:44.117Z,53.90
2023-02-19T16:01:47.432Z,54.00
2023-02-19T16:04:51.106Z,54.80
2023-02-19T16:08:16.866Z,54.80
2023-02-19T16:11:29.586Z,55.10
2023-02-19T16:14:33.663Z,55.20
2023-02-19T16:17:36.883Z,55.70
2023-02-19T16:20:39.861Z,56.10
2023-02-19T16:23:45.881Z,56.00
2023-02-19T16:26:51.887Z,55.70
2023-02-19T16:29:55.427Z,56.10
2023-02-19T16:33:34.692Z,56.00
2023-02-19T16:36:41.518Z,56.30
2023-02-19T16:39:46.026Z,56.20
2023-02-19T16:43:22.311Z,56.10
2023-02-19T16:46:25.430Z,56.80
2023-02-19T16:49:28.818Z,57.20
2023-02-19T16:52:32.371Z,57.20
2023-02-19T16:55:36.759Z,57.50
2023-02-19T16:58:40.050Z,57.60
2023-02-19T17:01:43.449Z,57.80
2023-02-19T17:04:48.889Z,58.00
2023-02-19T17:07:52.094Z,58.10
2023-02-19T17:10:56.384Z,58.30
2023-02-19T17:13:59.434Z,58.20
2023-02-19T17:17:02.517Z,58.40
2023-02-19T17:20:21.414Z,58.70
2023-02-19T17:23:24.645Z,58.80
2023-02-19T17:26:30.988Z,58.60
2023-02-19T17:29:35.196Z,58.80
2023-02-19T17:32:39.884Z,59.00
2023-02-19T17:35:44.770Z,59.20
2023-02-19T17:38:47.888Z,59.00
2023-02-19T17:41:52.522Z,59.10
2023-02-19T17:44:57.742Z,59.00
2023-02-19T17:48:02.999Z,59.30
2023-02-19T17:51:06.312Z,59.60
2023-02-19T17:54:09.528Z,59.80
2023-02-19T17:57:13.931Z,60.00
2023-02-19T18:00:18.825Z,60.10
2023-02-19T18:03:21.980Z,60.20
2023-02-19T18:06:25.007Z,60.40
2023-02-19T18:09:28.132Z,60.60
2023-02-19T18:12:33.035Z,60.70
2023-02-19T18:15:36.045Z,60.60
2023-02-19T18:18:39.173Z,60.10
2023-02-19T18:21:42.183Z,60.30
2023-02-19T18:24:47.963Z,60.70
2023-02-19T18:27:53.211Z,60.80
2023-02-19T18:30:56.449Z,60.80
2023-02-19T18:33:59.525Z,61.00
2023-02-19T18:37:05.533Z,60.90
2023-02-19T18:40:10.887Z,61.20
2023-02-19T18:43:16.838Z,61.20
2023-02-19T18:46:22.577Z,61.60
2023-02-19T18:49:25.890Z,61.40
2023-02-19T18:52:29.331Z,61.40
2023-02-19T18:55:32.429Z,61.50
2023-02-19T18:58:36.899Z,62.00
2023-02-19T19:01:40.200Z,62.00
2023-02-19T19:04:43.970Z,61.70
2023-02-19T19:07:47.083Z,61.60
2023-02-19T19:10:50.149Z,61.70
2023-02-19T19:13:54.990Z,61.70
2023-02-19T19:16:58.103Z,62.10
2023-02-19T19:20:01.198Z,62.20
2023-02-19T19:23:04.873Z,62.20
2023-02-19T19:26:08.841Z,62.60
2023-02-19T19:29:15.407Z,62.80
2023-02-19T19:32:18.479Z,62.90
2023-02-19T19:35:22.593Z,62.90
2023-02-19T19:38:26.023Z,62.90
2023-02-19T19:41:29.621Z,63.00
2023-02-19T19:44:34.154Z,63.00
2023-02-19T19:47:37.939Z,63.00
2023-02-19T19:50:41.060Z,63.20
2023-02-19T19:53:44.275Z,63.50
2023-02-19T19:56:50.295Z,63.50
2023-02-19T19:59:54.983Z,63.40
2023-02-19T20:02:58.151Z,63.30
2023-02-19T20:06:01.263Z,63.50
2023-02-19T20:09:04.784Z,63.50
2023-02-19T20:12:08.658Z,63.60
2023-02-19T20:15:14.913Z,63.80
2023-02-19T20:18:18.043Z,63.80
2023-02-19T20:21:21.447Z,63.90
2023-02-19T20:24:28.464Z,63.70
2023-02-19T20:27:31.548Z,63.80
2023-02-19T20:30:37.168Z,64.00
2023-02-19T20:33:40.228Z,63.80
2023-02-19T20:36:44.380Z,64.10
2023-02-19T20:39:50.480Z,64.00
2023-02-19T20:42:53.548Z,64.30
2023-02-19T20:45:58.007Z,64.60
2023-02-19T20:49:01.933Z,64.60
2023-02-19T20:52:08.143Z,64.80
2023-02-19T20:55:11.470Z,65.00
2023-02-19T20:58:17.164Z,64.90
2023-02-19T21:01:28.004Z,65.20
2023-02-19T21:04:31.151Z,65.20
2023-02-19T21:07:34.151Z,65.20
2023-02-19T21:10:37.322Z,65.30
2023-02-19T21:13:41.039Z,65.50
2023-02-19T21:16:45.916Z,65.50
2023-02-19T21:19:50.271Z,65.50
2023-02-19T21:22:54.022Z,65.70
2023-02-19T21:25:56.987Z,65.80
2023-02-19T21:29:00.327Z,65.90
2023-02-19T21:32:05.825Z,66.10
2023-02-19T21:35:09.899Z,66.20
2023-02-19T21:38:14.786Z,66.40
2023-02-19T21:41:17.972Z,66.70
2023-02-19T21:44:22.097Z,66.90
2023-02-19T21:47:27.675Z,66.90
2023-02-19T21:50:30.673Z,67.10
2023-02-19T21:53:33.815Z,67.00
2023-02-19T21:56:37.098Z,66.90
2023-02-19T21:59:40.194Z,66.80
2023-02-19T22:02:46.851Z,67.10
2023-02-19T22:05:50.453Z,67.20
2023-02-19T22:08:53.600Z,67.20
2023-02-19T22:11:56.668Z,67.20
2023-02-19T22:14:59.827Z,66.90
2023-02-19T22:18:04.350Z,67.00
2023-02-19T22:21:07.744Z,67.10
2023-02-19T22:24:17.569Z,67.20
2023-02-19T22:27:20.534Z,67.40
2023-02-19T22:30:23.748Z,67.50
2023-02-19T22:33:28.124Z,67.50
2023-02-19T22:36:33.145Z,67.70
2023-02-19T22:39:36.347Z,67.90
2023-02-19T22:42:39.719Z,68.30
2023-02-19T22:45:43.089Z,68.40
2023-02-19T22:48:47.986Z,68.60
2023-02-19T22:51:54.007Z,68.60
2023-02-19T22:54:57.270Z,68.60
2023-02-19T22:58:00.288Z,68.60
2023-02-19T23:01:03.396Z,68.80
2023-02-19T23:04:07.948Z,68.90
2023-02-19T23:07:11.965Z,69.00
2023-02-19T23:10:15.131Z,69.20
2023-02-19T23:13:18.189Z,69.10
2023-02-19T23:16:21.811Z,69.20
2023-02-19T23:19:26.650Z,69.30
2023-02-19T23:22:30.017Z,69.30
2023-02-19T23:25:33.956Z,69.50
2023-02-19T23:28:37.096Z,69.60
2023-02-19T23:31:40.169Z,69.40
2023-02-19T23:34:44.666Z,69.60
2023-02-19T23:37:48.633Z,69.60
2023-02-19T23:40:51.634Z,69.80
2023-02-19T23:43:55.472Z,70.10
2023-02-19T23:46:58.518Z,69.90
2023-02-19T23:50:02.978Z,70.10
2023-02-19T23:53:06.358Z,70.20
2023-02-19T23:56:09.686Z,70.50
2023-02-19T23:59:13.169Z,70.60
